Ana Sayfa
METAR-TAF:

METAR-TAF

Havaalanları :

Sofya Havalimanı

Sofya, Bulgaristan

Enlem: 42-39N, Boylam: 023-23E, yükseklik: 586 m

Güncel hava durumu gözlemi

Rapor saat 10:30 UTC de 24 dakika önce yapıldı.
Rüzgar kuzeybatıdan 13 kt
Sıcaklık 3°C
Nem 52%
Basınç 1015 hPa
Görüş mesafesi 10 km veya daha fazla
1500 m altında bulut yok ve kümülonimbus yok

METAR: LBSF 161030Z 31013KT CAVOK 03/M06 Q1015 NOSIG

Saat: 12:54 (10:54 UTC)

Tahmin

Rapor saat 05:00 UTC de 5 saat ve 54 dakika önce yapıldı.
Ayın 16'si saat 06 UTC'den ayın 17'si saat 06 UTC'ye kadar geçerli Tahmin
Rüzgar batı/kuzeybatıdan 10 kt
Görüş mesafesi 10 km veya daha fazla
5000 ft yükseklikte parçalı bulutlu
Dönüşüyor
ayın 16'si saat 17 UTC'den ayın 16'si saat 19 UTC'ye kadar
Rüzgar değişken yönden 4 kt

TAF: LBSF 160500Z 1606/1706 30010KT 9999 SCT050 BECMG 1617/1619 VRB04KT

4.000'den fazla havaalanı için hava durumu gözlemleri ve tahminleri (METAR ve TAF raporları).

Kullanılabilir istasyonlar harita üzerinde sarı ve kırmızı noktalarla gösterilir.

İstasyonun adını görmek için fareyi noktanın üzerinde gezdirin.

Sonrasında hava gözlem ve tahminlerini görmek için tıklayın.

Haritayı değiştirmek için: yaklaştırmak için siyah artı işaretli yeşil düğmeye ve uzaklaştırmak için de eksi işaretli düğmeye hızla tıklayın; bitişik haritalar için yeşil okları kullanın.


METAR-TAF: